| time (UTC) | temp F | wind direction | speed knots | gust knots | rain 1hr in | rain 24hr in | rain mn in | humidity % | barometer mb |
| 20260906174733 | 97 | 58 | 0.9 | 5.2 | 0.00 | 0.00 | 0.00 | 46 | 1012.3 |
| 20260906173723 | 96 | 127 | 0.9 | 5.2 | 0.00 | 0.00 | 0.00 | 48 | 1012.5 |
| 20260906172737 | 95 | 126 | 0.9 | 5.2 | 0.00 | 0.00 | 0.00 | 51 | 1012.6 |
| 20260906171722 | 95 | 126 | 0.9 | 4.3 | 0.00 | 0.00 | 0.00 | 50 | 1012.8 |
| 20260906170719 | 94 | 157 | 1.7 | 6.1 | 0.00 | 0.00 | 0.00 | 52 | 1013.1 |
| 20260906165709 | 94 | 119 | 0.9 | 6.1 | 0.00 | 0.00 | 0.00 | 53 | 1013.1 |
| 20260906164701 | 93 | 136 | 0.9 | 6.1 | 0.00 | 0.00 | 0.00 | 54 | 1013.3 |
| 20260906163637 | 93 | 132 | 0.9 | 5.2 | 0.00 | 0.00 | 0.00 | 57 | 1013.3 |
| 20260906162648 | 93 | 134 | 0.9 | 5.2 | 0.00 | 0.00 | 0.00 | 57 | 1013.3 |
| 20260906161616 | 92 | 96 | 0.0 | 2.6 | 0.00 | 0.00 | 0.00 | 60 | 1013.3 |
| 20260906160621 | 91 | 143 | 0.9 | 3.5 | 0.00 | 0.00 | 0.00 | 61 | 1013.3 |
| 20260906155636 | 90 | 148 | 0.9 | 5.2 | 0.00 | 0.00 | 0.00 | 61 | 1013.2 |
| 20260906154637 | 90 | 125 | 1.7 | 5.2 | 0.00 | 0.00 | 0.00 | 62 | 1013.1 |
| 20260906151320 | 87 | 147 | 0.9 | 3.5 | 0.00 | 0.00 | 0.00 | 67 | 1013.1 |
| 20260906150319 | 86 | 131 | 1.7 | 6.1 | 0.00 | 0.00 | 0.00 | 68 | 1013.1 |
| 20260906145331 | 86 | 130 | 1.7 | 6.1 | 0.00 | 0.00 | 0.00 | 67 | 1013.1 |
| 20260906144339 | 86 | 129 | 1.7 | 5.2 | 0.00 | 0.00 | 0.00 | 68 | 1013.2 |
| 20260906142241 | 85 | 127 | 0.9 | 3.5 | 0.00 | 0.00 | 0.00 | 69 | 1013.1 |
| 20260906141241 | 85 | 126 | 0.9 | 3.5 | 0.00 | 0.00 | 0.00 | 69 | 1013.1 |
| 20260906140304 | 84 | 138 | 0.9 | 5.2 | 0.00 | 0.00 | 0.00 | 70 | 1013.0 |
| 20260906135248 | 84 | 137 | 0.9 | 5.2 | 0.00 | 0.00 | 0.00 | 71 | 1013.0 |
| 20260906132040 | 82 | 126 | 0.9 | 2.6 | 0.00 | 0.00 | 0.00 | 73 | 1012.8 |
| 20260906125953 | 80 | 130 | 0.0 | 1.7 | 0.00 | 0.00 | 0.00 | 76 | 1012.6 |
| 20260906124947 | 79 | 130 | 0.0 | 0.0 | 0.00 | 0.00 | 0.00 | 76 | 1012.5 |
| 20260906123916 | 79 | 130 | 0.0 | 0.0 | 0.00 | 0.00 | 0.00 | 76 | 1012.3 |
| 20260906122910 | 79 | 130 | 0.0 | 0.0 | 0.00 | 0.00 | 0.00 | 75 | 1012.2 |
| 20260906121854 | 79 | 130 | 0.0 | 0.0 | 0.00 | 0.00 | 0.00 | 74 | 1012.1 |
| 20260906120844 | 79 | 130 | 0.0 | 0.0 | 0.00 | 0.00 | 0.00 | 74 | 1012.0 |
| 20260906115827 | 79 | 130 | 0.0 | 0.0 | 0.00 | 0.00 | 0.00 | 75 | 1012.0 |
| 20260906114800 | 79 | 130 | 0.0 | 0.0 | 0.00 | 0.00 | 0.00 | 75 | 1012.0 |
| 20260906113736 | 79 | 130 | 0.0 | 0.0 | 0.00 | 0.00 | 0.00 | 75 | 1012.0 |
| 20260906105324 | 80 | 138 | 0.0 | 1.7 | 0.00 | 0.00 | 0.00 | 72 | 1011.8 |
| 20260906104301 | 80 | 133 | 0.0 | 0.0 | 0.00 | 0.00 | 0.00 | 72 | 1011.8 |
| 20260906103318 | 80 | 133 | 0.0 | 0.0 | 0.00 | 0.00 | 0.00 | 72 | 1011.8 |
| 20260906101209 | 80 | 133 | 0.0 | 0.0 | 0.00 | 0.00 | 0.00 | 72 | 1011.6 |
| 20260906100157 | 80 | 133 | 0.0 | 0.0 | 0.00 | 0.00 | 0.00 | 72 | 1011.5 |
| 20260906095156 | 80 | 133 | 0.0 | 0.0 | 0.00 | 0.00 | 0.00 | 72 | 1011.5 |
| 20260906094144 | 81 | 133 | 0.0 | 0.0 | 0.00 | 0.00 | 0.00 | 71 | 1011.5 |
| 20260906093117 | 81 | 133 | 0.0 | 0.0 | 0.00 | 0.00 | 0.00 | 71 | 1011.5 |
| 20260906092107 | 81 | 133 | 0.0 | 0.0 | 0.00 | 0.00 | 0.00 | 71 | 1011.4 |
| 20260906090015 | 81 | 133 | 0.0 | 0.0 | 0.00 | 0.00 | 0.00 | 70 | 1011.4 |
| 20260906083820 | 81 | 133 | 0.0 | 0.0 | 0.00 | 0.00 | 0.00 | 70 | 1011.2 |
| 20260906081644 | 82 | 133 | 0.0 | 0.0 | 0.00 | 0.00 | 0.00 | 68 | 1011.2 |
| 20260906080625 | 82 | 133 | 0.0 | 0.0 | 0.00 | 0.00 | 0.00 | 67 | 1011.2 |
| 20260906075605 | 82 | 133 | 0.0 | 0.0 | 0.00 | 0.00 | 0.00 | 67 | 1011.1 |
| 20260906073439 | 83 | 133 | 0.0 | 0.9 | 0.00 | 0.00 | 0.00 | 66 | 1011.1 |
| 20260906072452 | 83 | 133 | 0.0 | 0.0 | 0.00 | 0.00 | 0.00 | 66 | 1011.1 |
| 20260906070347 | 83 | 133 | 0.0 | 0.0 | 0.00 | 0.00 | 0.00 | 67 | 1011.1 |
| 20260906065401 | 83 | 133 | 0.0 | 0.0 | 0.00 | 0.00 | 0.00 | 66 | 1011.3 |
| 20260906064353 | 83 | 133 | 0.0 | 0.0 | 0.00 | 0.00 | 0.00 | 66 | 1011.3 |
| 20260906063318 | 83 | 133 | 0.0 | 0.0 | 0.00 | 0.00 | 0.00 | 66 | 1011.3 |
| 20260906062251 | 83 | 133 | 0.0 | 0.0 | 0.00 | 0.00 | 0.00 | 66 | 1011.4 |
| 20260906061220 | 84 | 133 | 0.0 | 0.0 | 0.00 | 0.00 | 0.00 | 65 | 1011.4 |
| 20260906060158 | 84 | 133 | 0.0 | 0.0 | 0.00 | 0.00 | 0.00 | 64 | 1011.5 |
| 20260906055138 | 84 | 133 | 0.0 | 0.0 | 0.00 | 0.00 | 0.00 | 63 | 1011.5 |
| 20260906054136 | 85 | 133 | 0.0 | 0.0 | 0.00 | 0.00 | 0.00 | 63 | 1011.6 |
| 20260906053146 | 85 | 133 | 0.0 | 0.0 | 0.00 | 0.00 | 0.00 | 62 | 1011.6 |
| 20260906052115 | 86 | 133 | 0.0 | 0.0 | 0.00 | 0.00 | 0.00 | 61 | 1011.6 |
| 20260906051055 | 86 | 133 | 0.0 | 0.0 | 0.00 | 0.00 | 0.00 | 60 | 1011.6 |
| 20260906050025 | 86 | 133 | 0.0 | 0.0 | 0.00 | 0.00 | 0.00 | 60 | 1011.6 |
| 20260906045010 | 87 | 133 | 0.0 | 0.0 | 0.00 | 0.00 | 0.00 | 59 | 1011.5 |
| 20260906042857 | 87 | 133 | 0.0 | 0.9 | 0.00 | 0.00 | 0.00 | 60 | 1011.6 |
| 20260906041917 | 87 | 133 | 0.0 | 0.9 | 0.00 | 0.00 | 0.00 | 61 | 1011.5 |
| 20260906040931 | 87 | 133 | 0.0 | 0.9 | 0.00 | 0.00 | 0.00 | 62 | 1011.4 |
| 20260906034802 | 87 | 133 | 0.0 | 0.0 | 0.00 | 0.00 | 0.00 | 61 | 1011.2 |
| 20260906033802 | 88 | 133 | 0.0 | 0.0 | 0.00 | 0.00 | 0.00 | 60 | 1011.1 |
| 20260906032748 | 88 | 133 | 0.0 | 0.9 | 0.00 | 0.00 | 0.00 | 60 | 1011.0 |
| 20260906031736 | 88 | 133 | 0.0 | 0.9 | 0.00 | 0.00 | 0.00 | 60 | 1011.0 |
| 20260906030747 | 88 | 133 | 0.0 | 0.0 | 0.00 | 0.00 | 0.00 | 60 | 1010.9 |
| 20260906025812 | 88 | 133 | 0.0 | 0.9 | 0.00 | 0.00 | 0.00 | 60 | 1010.8 |
| 20260906024819 | 88 | 133 | 0.0 | 0.0 | 0.00 | 0.00 | 0.00 | 60 | 1010.6 |
| 20260906023747 | 89 | 133 | 0.0 | 0.0 | 0.00 | 0.00 | 0.00 | 59 | 1010.5 |
| 20260906022737 | 89 | 133 | 0.0 | 0.9 | 0.00 | 0.00 | 0.00 | 59 | 1010.3 |
| 20260906021708 | 89 | 133 | 0.0 | 0.0 | 0.00 | 0.00 | 0.00 | 59 | 1010.3 |
| 20260906015522 | 89 | 133 | 0.0 | 0.0 | 0.00 | 0.00 | 0.00 | 58 | 1010.0 |
| 20260906014515 | 90 | 133 | 0.0 | 0.0 | 0.00 | 0.00 | 0.00 | 58 | 1009.9 |
| 20260906013456 | 90 | 133 | 0.0 | 0.0 | 0.00 | 0.00 | 0.00 | 57 | 1009.8 |
| 20260906011345 | 91 | 133 | 0.0 | 1.7 | 0.00 | 0.00 | 0.00 | 56 | 1009.5 |
| 20260906010326 | 91 | 128 | 0.0 | 0.0 | 0.00 | 0.00 | 0.00 | 56 | 1009.6 |
| 20260906003117 | 93 | 128 | 0.0 | 0.0 | 0.00 | 0.00 | 0.00 | 54 | 1009.4 |
| 20260906002050 | 94 | 128 | 0.0 | 0.0 | 0.00 | 0.00 | 0.00 | 53 | 1009.5 |
| 20260906001039 | 94 | 128 | 0.0 | 0.0 | 0.00 | 0.00 | 0.00 | 51 | 1009.5 |
| 20260906000044 | 94 | 128 | 0.0 | 0.9 | 0.00 | 0.00 | 0.00 | 50 | 1009.4 |
| 20260905235059 | 95 | 128 | 0.0 | 0.0 | 0.00 | 0.00 | 0.00 | 50 | 1009.5 |
| 20260905234040 | 95 | 128 | 0.0 | 2.6 | 0.00 | 0.00 | 0.00 | 48 | 1009.4 |
| 20260905233020 | 96 | 128 | 0.9 | 2.6 | 0.00 | 0.00 | 0.00 | 48 | 1009.3 |
| 20260905231954 | 96 | 128 | 0.9 | 5.2 | 0.00 | 0.00 | 0.00 | 48 | 1009.3 |
| 20260905231004 | 96 | 127 | 0.9 | 5.2 | 0.00 | 0.00 | 0.00 | 46 | 1009.2 |
| 20260905225959 | 97 | 135 | 0.9 | 5.2 | 0.00 | 0.00 | 0.00 | 46 | 1009.3 |
| 20260905224949 | 97 | 128 | 0.9 | 5.2 | 0.00 | 0.00 | 0.00 | 44 | 1009.2 |
| 20260905223936 | 97 | 129 | 0.9 | 3.5 | 0.00 | 0.00 | 0.00 | 44 | 1009.3 |
| 20260905222931 | 98 | 127 | 0.9 | 7.0 | 0.00 | 0.00 | 0.00 | 45 | 1009.3 |
| 20260905221953 | 98 | 127 | 1.7 | 7.0 | 0.00 | 0.00 | 0.00 | 43 | 1009.4 |
| 20260905220952 | 99 | 150 | 1.7 | 6.1 | 0.00 | 0.00 | 0.00 | 38 | 1009.5 |
| 20260905214804 | 100 | 168 | 0.0 | 3.5 | 0.00 | 0.00 | 0.00 | 36 | 1009.7 |
| 20260905212654 | 100 | 158 | 1.7 | 5.2 | 0.00 | 0.00 | 0.00 | 36 | 1009.9 |
| 20260905211645 | 100 | 137 | 1.7 | 5.2 | 0.00 | 0.00 | 0.00 | 36 | 1010.0 |
| 20260905210632 | 100 | 136 | 0.9 | 5.2 | 0.00 | 0.00 | 0.00 | 37 | 1010.1 |
| 20260905205625 | 100 | 151 | 0.9 | 5.2 | 0.00 | 0.00 | 0.00 | 37 | 1010.2 |
| 20260905203532 | 101 | 140 | 0.9 | 4.3 | 0.00 | 0.00 | 0.00 | 37 | 1010.3 |
| 20260905202524 | 101 | 215 | 0.9 | 3.5 | 0.00 | 0.00 | 0.00 | 37 | 1010.6 |
| 20260905201504 | 102 | 188 | 0.9 | 3.5 | 0.00 | 0.00 | 0.00 | 35 | 1010.8 |
| 20260905200445 | 102 | 171 | 0.0 | 3.5 | 0.00 | 0.00 | 0.00 | 38 | 1010.9 |
| 20260905195415 | 101 | 163 | 0.0 | 3.5 | 0.00 | 0.00 | 0.00 | 37 | 1011.1 |
| 20260905194358 | 100 | 232 | 0.9 | 3.5 | 0.00 | 0.00 | 0.00 | 37 | 1011.1 |
| 20260905193402 | 100 | 153 | 0.9 | 4.3 | 0.00 | 0.00 | 0.00 | 37 | 1011.2 |
| 20260905192350 | 100 | 218 | 0.9 | 5.2 | 0.00 | 0.00 | 0.00 | 37 | 1011.2 |
| 20260905191320 | 99 | 136 | 0.9 | 5.2 | 0.00 | 0.00 | 0.00 | 39 | 1011.3 |
| 20260905190256 | 99 | 217 | 0.9 | 5.2 | 0.00 | 0.00 | 0.00 | 39 | 1011.4 |
| 20260905185257 | 98 | 149 | 0.0 | 2.6 | 0.00 | 0.00 | 0.00 | 40 | 1011.6 |
| 20260905184308 | 98 | 190 | 0.0 | 2.6 | 0.00 | 0.00 | 0.00 | 42 | 1011.7 |
| 20260905183251 | 97 | 279 | 0.0 | 0.0 | 0.00 | 0.00 | 0.00 | 45 | 1011.8 |
| 20260905181124 | 99 | 279 | 0.0 | 2.6 | 0.00 | 0.00 | 0.00 | 41 | 1012.1 |
| 20260905180144 | 99 | 192 | 0.0 | 2.6 | 0.00 | 0.00 | 0.00 | 41 | 1012.3 |